WetterOnline ( https://www.wetteronline.de )

Wetter aktuell Kyritz

Aktuelles Wetter: Kyritz (42m)

6-stündlich | Neueste Meldungen
Ortszeit Temperatur Wetter
Di, 29.11. 1:00 3.0° C bewölkt
Mo, 28.11. 19:00 3.5° C bedeckt
Mo, 28.11. 13:00 4.8° C bedeckt
Mo, 28.11. 7:00 2.9° C bedeckt
Mo, 28.11. 1:00 3.6° C bewölkt
So, 27.11. 19:00 4.5° C bedeckt
So, 27.11. 13:00 6.2° C bedeckt
So, 27.11. 7:00 1.0° C Nebel
Ortszeit Temperatur Wetter
Di, 29.11. 5:00 2.9° C Sprühregen
Di, 29.11. 4:30 2.9° C bedeckt
Di, 29.11. 4:20 2.9° C bedeckt
Di, 29.11. 4:10 2.9° C bewölkt
Di, 29.11. 4:00 2.9° C wolkig
Di, 29.11. 3:50 2.9° C wolkig
Di, 29.11. 3:30 2.9° C bewölkt
Di, 29.11. 3:00 2.9° C bedeckt
Di, 29.11. 2:30 2.9° C bewölkt
Di, 29.11. 2:00 2.9° C bewölkt
Ortszeit Relative Feuchte Sichtweite
Di, 29.11. 1:00 89% 8 km
Mo, 28.11. 19:00 86% 11 km
Mo, 28.11. 13:00 82% 20 km
Mo, 28.11. 7:00 87% 22 km
Mo, 28.11. 1:00 87% 28 km
So, 27.11. 19:00 90% 25 km
So, 27.11. 13:00 85% 23 km
So, 27.11. 7:00 97% 2.0 km
Ortszeit Relative Feuchte Sichtweite
Di, 29.11. 5:00 89% 8 km
Di, 29.11. 4:30 89% 9 km
Di, 29.11. 4:20 89% -
Di, 29.11. 4:10 89% -
Di, 29.11. 4:00 89% 9 km
Di, 29.11. 3:50 89% -
Di, 29.11. 3:30 89% 9 km
Di, 29.11. 3:00 89% 9 km
Di, 29.11. 2:30 89% 9 km
Di, 29.11. 2:00 89% 9 km
Ortszeit Niederschlagsmenge Niederschlagsart
Di, 29.11. 1:00 0.0 l/m2 in 6 Std. -
Mo, 28.11. 19:00 0.0 l/m2 in 12 Std. -
Mo, 28.11. 13:00 0.0 l/m2 in 6 Std. -
Mo, 28.11. 7:00 0.0 l/m2 in 12 Std. -
Mo, 28.11. 1:00 0.0 l/m2 in 6 Std. -
So, 27.11. 19:00 0.0 l/m2 in 12 Std. -
So, 27.11. 13:00 0.0 l/m2 in 6 Std. -
So, 27.11. 7:00 0.1 l/m2 in 12 Std. -
Ortszeit Niederschlagsmenge Niederschlagsart
Di, 29.11. 5:00 <0.05 l/m2 in 1 Std. Sprühregen
Di, 29.11. 4:30 0.0 l/m2 in 1 Std. -
Di, 29.11. 4:20 keine Meldung -
Di, 29.11. 4:10 keine Meldung -
Di, 29.11. 4:00 0.0 l/m2 in 1 Std. -
Di, 29.11. 3:50 keine Meldung -
Di, 29.11. 3:30 0.0 l/m2 in 1 Std. -
Di, 29.11. 3:00 0.0 l/m2 in 1 Std. -
Di, 29.11. 2:30 0.0 l/m2 in 1 Std. -
Di, 29.11. 2:00 0.0 l/m2 in 1 Std. -
Ortszeit Stärke Spitze Richtung
km/h Bft. km/h Grad Sektor
Di, 29.11. 1:00 14 3 32 100° O
Mo, 28.11. 19:00 22 4 40 110° O
Mo, 28.11. 13:00 22 4 40 130° SO
Mo, 28.11. 7:00 20 4 37 120° SO
Mo, 28.11. 1:00 20 4 35 120° SO
So, 27.11. 19:00 18 3 29 130° SO
So, 27.11. 13:00 11 2 22 140° SO
So, 27.11. 7:00 9 2 11 140° SO
Ortszeit Stärke Spitze Richtung
km/h Bft. km/h Grad Sektor
Di, 29.11. 5:00 14 3 25 100° O
Di, 29.11. 4:30 19 3 24 90° O
Di, 29.11. 4:20 19 3 - 90° O
Di, 29.11. 4:10 14 3 - 90° O
Di, 29.11. 4:00 17 3 26 90° O
Di, 29.11. 3:50 17 3 - 90° O
Di, 29.11. 3:30 14 3 22 100° O
Di, 29.11. 3:00 14 3 22 100° O
Di, 29.11. 2:30 14 3 22 100° O
Di, 29.11. 2:00 15 3 24 100° O
Ortszeit Untergrenze Bedeckung Gattung
total tief tief mittel hoch
Di, 29.11. 1:00 1500 m 7/8 7/8 - - -
Mo, 28.11. 19:00 3000 m 8/8 8/8 - - -
Mo, 28.11. 13:00 3000 m 8/8 8/8 - - -
Mo, 28.11. 7:00 3000 m 8/8 8/8 - - -
Mo, 28.11. 1:00 2700 m 8/8 7/8 - - -
So, 27.11. 19:00 3900 m 8/8 8/8 - - -
So, 27.11. 13:00 6300 m 8/8 8/8 - - -
So, 27.11. 7:00 10500 m 8/8 0/8 - - -
Ortszeit Bedeckungsgrad in Achtel und Wolkenuntergrenze
Di, 29.11. 5:00 1(1380m) 7(2100m) 8(2700m)
Di, 29.11. 4:30 5(1800m) 6(2400m) 8(2700m)
Di, 29.11. 4:20 5(1800m) 6(2400m) 8(2700m)
Di, 29.11. 4:10 7
Di, 29.11. 4:00 1(1500m) 5(3000m) 8(4200m)
Di, 29.11. 3:50 1(1500m) 5(3000m) 8(4200m)
Di, 29.11. 3:30 2(1500m) 7(2400m) 7(3300m)
Di, 29.11. 3:00 7(1500m) 8(2700m)
Di, 29.11. 2:30 7(1500m) 7(2100m) 7(2700m)
Di, 29.11. 2:00 6(1800m) 7(2100m) 7(2700m)
Ortszeit Luftdruck NN (hPa) Tendenz (hPa in 3 Std.)
Di, 29.11. 1:00 1017 + 0,3
Mo, 28.11. 19:00 1016 + 0,4
Mo, 28.11. 13:00 1016 - 0,9
Mo, 28.11. 7:00 1017 - 0,8
Mo, 28.11. 1:00 1020 - 1,1
So, 27.11. 19:00 1022 - 1,4
So, 27.11. 13:00 1026 - 1,6
So, 27.11. 7:00 1028 - 0,7
Ortszeit Luftdruck NN (hPa) Tendenz (hPa in 3 Std.)
Di, 29.11. 5:00 1017 + 0,4
Di, 29.11. 4:30 1017 0,0
Di, 29.11. 4:20 1017 keine Meldung
Di, 29.11. 4:10 1017 keine Meldung
Di, 29.11. 4:00 1017 0,0
Di, 29.11. 3:50 1017 keine Meldung
Di, 29.11. 3:30 1017 + 0,3
Di, 29.11. 3:00 1017 + 0,4
Di, 29.11. 2:30 1017 + 0,3
Di, 29.11. 2:00 1017 + 0,2
Ortszeit Schneehöhe (cm)
Di, 29.11. 1:00 0
Mo, 28.11. 19:00 0
Mo, 28.11. 13:00 0
Mo, 28.11. 7:00 0
Mo, 28.11. 1:00 0
So, 27.11. 19:00 0
So, 27.11. 13:00 0
So, 27.11. 7:00 0
Ortszeit Schneehöhe (cm)
Di, 29.11. 5:00 0
Di, 29.11. 4:30 0
Di, 29.11. 4:20 0
Di, 29.11. 4:10 0
Di, 29.11. 4:00 0
Di, 29.11. 3:50 0
Di, 29.11. 3:30 0
Di, 29.11. 3:00 0
Di, 29.11. 2:30 0
Di, 29.11. 2:00 0
Link zu dieser Seite / Seite empfehlen

Das Wetter in ...